Time;durP1;ratioP1;P1;durP2;ratioP2;P2;SDS_P1;SDS_P2;PMS_P1;PMS_P2;Temp;Humidity;BMP_temperature;BMP_pressure;BME280_temperature;BME280_humidity;BME280_pressure;Samples;Min_cycle;Max_cycle;Signal;HPM_P1;HPM_P2
2022/09/24 00:00:30;;;;;;;;;;;;;;;11.65;74.00;96633.78;30001;982;1881;-62
2022/09/24 00:01:14;;;;;;;;;;;;;;;11.64;73.61;96637.63;30001;982;1885;-62
2022/09/24 00:01:45;;;;;;;;;;;;;;;11.65;73.63;96633.78;30001;982;1881;-63
2022/09/24 00:02:18;;;;;;;;;;;;;;;11.65;73.83;96633.78;30001;982;1886;-63
2022/09/24 00:02:49;;;;;;;;;;;;;;;11.66;73.57;96632.69;30001;982;1868;-62
2022/09/24 00:03:23;;;;;;;;;;;;;;;11.64;73.69;96626.75;30001;983;1876;-64
2022/09/24 00:03:56;;;;;;;;;;;;;;;11.63;74.13;96622.44;30001;983;1880;-63
2022/09/24 00:04:27;;;;;;;;;;;;;;;11.62;73.62;96624.34;30001;983;1885;-62
2022/09/24 00:04:58;;;;;;;;;;;;;;;11.63;74.31;96630.56;30001;983;1880;-63
2022/09/24 00:05:28;;;;;;;;;;;;;;;11.62;73.89;96623.53;30001;983;1885;-63
2022/09/24 00:06:03;;;;;;;;;;;;;;;11.63;74.07;96627.88;30001;983;1881;-62
2022/09/24 00:06:39;;;;;;;;;;;;;;;11.63;74.14;96627.88;30001;983;1872;-63
2022/09/24 00:07:10;;;;;;;;;;;;;;;11.62;74.02;96623.53;30001;982;1859;-62
2022/09/24 00:07:41;;;;;;;;;;;;;;;11.61;74.05;96621.94;30001;982;1885;-62
2022/09/24 00:08:14;;;;;;;;;;;;;;;11.61;74.04;96619.22;30001;982;1881;-63
2022/09/24 00:08:48;;;;;;;;;;;;;;;11.60;74.06;96623.03;30001;982;1885;-58
2022/09/24 00:09:20;;;;;;;;;;;;;;;11.60;74.13;96626.56;30001;982;1881;-64
2022/09/24 00:09:51;;;;;;;;;;;;;;;11.59;73.82;96618.72;30001;982;1886;-62
2022/09/24 00:10:22;;;;;;;;;;;;;;;11.57;74.38;96620.94;30001;982;1881;-58
2022/09/24 00:10:56;;;;;;;;;;;;;;;11.56;74.27;96620.12;30001;983;1884;-58
2022/09/24 00:11:27;;;;;;;;;;;;;;;11.56;74.11;96630.19;30001;983;1880;-58
2022/09/24 00:11:59;;;;;;;;;;;;;;;11.55;74.30;96618.50;30001;983;1885;-63
2022/09/24 00:12:31;;;;;;;;;;;;;;;11.55;74.33;96617.72;30001;983;1867;-63
2022/09/24 00:13:01;;;;;;;;;;;;;;;11.55;74.01;96617.72;30001;983;1876;-63
2022/09/24 00:13:33;;;;;;;;;;;;;;;11.55;74.72;96615.00;30001;983;1880;-63
2022/09/24 00:14:05;;;;;;;;;;;;;;;11.54;74.58;96624.25;30001;983;1885;-58
2022/09/24 00:14:36;;;;;;;;;;;;;;;11.52;74.31;96613.69;30001;983;1881;-62
2022/09/24 00:15:08;;;;;;;;;;;;;;;11.52;74.65;96619.13;30001;982;1885;-63
2022/09/24 00:15:39;;;;;;;;;;;;;;;11.53;74.93;96625.34;30001;982;1881;-63
2022/09/24 00:16:11;;;;;;;;;;;;;;;11.52;74.66;96621.03;30001;982;1885;-64
2022/09/24 00:16:44;;;;;;;;;;;;;;;11.52;74.79;96621.03;30001;982;1881;-63
2022/09/24 00:17:15;;;;;;;;;;;;;;;11.51;74.75;96622.13;30001;982;1885;-63
2022/09/24 00:17:46;;;;;;;;;;;;;;;11.50;74.44;96624.06;30001;982;1868;-63
2022/09/24 00:18:17;;;;;;;;;;;;;;;11.49;75.08;96617.00;30001;983;1876;-64
2022/09/24 00:18:49;;;;;;;;;;;;;;;11.48;75.02;96617.31;30001;983;1880;-63
2022/09/24 00:19:20;;;;;;;;;;;;;;;11.48;74.95;96617.31;30001;983;1885;-63
2022/09/24 00:19:50;;;;;;;;;;;;;;;11.47;75.29;96615.72;30001;983;1881;-63
2022/09/24 00:20:21;;;;;;;;;;;;;;;11.46;75.28;96620.34;30001;983;1885;-58
2022/09/24 00:20:52;;;;;;;;;;;;;;;11.45;75.53;96613.28;30001;983;1880;-63
2022/09/24 00:21:25;;;;;;;;;;;;;;;11.46;74.93;96614.91;30001;983;1885;-63
2022/09/24 00:21:57;;;;;;;;;;;;;;;11.46;75.29;96616.81;30001;983;1881;-64
2022/09/24 00:22:30;;;;;;;;;;;;;;;11.46;75.60;96614.91;30001;982;1885;-62
2022/09/24 00:23:01;;;;;;;;;;;;;;;11.45;75.45;96612.50;30001;982;1868;-62
2022/09/24 00:23:32;;;;;;;;;;;;;;;11.45;75.25;96617.91;30001;982;1863;-63
2022/09/24 00:24:05;;;;;;;;;;;;;;;11.45;75.55;96615.19;30001;982;1881;-62
2022/09/24 00:27:03;;;;;;;;;;;;;;;11.43;75.61;96606.59;30001;983;1880;-58
2022/09/24 00:27:34;;;;;;;;;;;;;;;11.42;75.60;96608.50;30001;983;1885;-63
2022/09/24 00:28:05;;;;;;;;;;;;;;;11.43;75.76;96609.31;30001;983;1880;-63
2022/09/24 00:28:35;;;;;;;;;;;;;;;11.43;75.95;96604.66;30001;983;1872;-64
2022/09/24 00:29:07;;;;;;;;;;;;;;;11.43;75.97;96612.03;30001;983;1872;-63
2022/09/24 00:29:38;;;;;;;;;;;;;;;11.42;75.82;96605.78;30001;983;1885;-63
2022/09/24 00:30:10;;;;;;;;;;;;;;;11.42;76.20;96605.78;30001;982;1881;-63
2022/09/24 00:30:41;;;;;;;;;;;;;;;11.41;76.13;96610.41;30001;982;1885;-64
2022/09/24 00:31:12;;;;;;;;;;;;;;;11.43;76.19;96609.31;30001;982;1881;-63
2022/09/24 00:31:43;;;;;;;;;;;;;;;11.43;76.05;96606.59;30001;982;1885;-64
2022/09/24 00:32:15;;;;;;;;;;;;;;;11.43;76.36;96607.38;30001;983;1880;-62
2022/09/24 00:32:46;;;;;;;;;;;;;;;11.43;76.20;96614.72;30001;983;1884;-63
2022/09/24 00:33:16;;;;;;;;;;;;;;;11.43;76.29;96608.16;30001;983;1880;-63
2022/09/24 00:33:50;;;;;;;;;;;;;;;11.43;76.16;96612.03;30001;983;1872;-64
2022/09/24 00:34:21;;;;;;;;;;;;;;;11.43;76.63;96609.31;30001;983;1871;-63
2022/09/24 00:34:52;;;;;;;;;;;;;;;11.43;76.25;96609.31;30001;983;1885;-63
2022/09/24 00:35:25;;;;;;;;;;;;;;;11.43;76.55;96606.59;30001;983;1867;-64
2022/09/24 00:36:01;;;;;;;;;;;;;;;11.41;76.49;96613.12;30001;983;1876;-64
2022/09/24 00:36:31;;;;;;;;;;;;;;;11.41;76.69;96607.69;30001;983;1881;-62
2022/09/24 00:37:02;;;;;;;;;;;;;;;11.41;76.96;96610.41;30001;983;1885;-63
2022/09/24 00:37:33;;;;;;;;;;;;;;;11.41;76.64;96613.12;30001;982;1880;-63
2022/09/24 00:38:05;;;;;;;;;;;;;;;11.41;76.87;96613.12;30001;982;1885;-63
2022/09/24 00:38:37;;;;;;;;;;;;;;;11.41;76.89;96615.84;30001;982;1881;-64
2022/09/24 00:39:07;;;;;;;;;;;;;;;11.42;76.75;96613.94;30001;982;1886;-62
2022/09/24 00:39:39;;;;;;;;;;;;;;;11.41;76.89;96609.59;30001;982;1868;-62
2022/09/24 00:40:10;;;;;;;;;;;;;;;11.38;76.54;96608.31;30001;983;1876;-64
2022/09/24 00:40:41;;;;;;;;;;;;;;;11.38;77.01;96613.72;30001;983;1880;-64
2022/09/24 00:41:11;;;;;;;;;;;;;;;11.36;76.91;96609.72;30001;983;1884;-64
2022/09/24 00:41:46;;;;;;;;;;;;;;;11.35;77.14;96613.53;30001;983;1880;-63
2022/09/24 00:42:18;;;;;;;;;;;;;;;11.36;77.28;96610.50;30001;983;1885;-63
2022/09/24 00:42:49;;;;;;;;;;;;;;;11.34;77.47;96612.72;30001;973;1885;-63
2022/09/24 00:43:24;;;;;;;;;;;;;;;11.35;77.19;96613.53;30001;983;1876;-62
2022/09/24 00:43:55;;;;;;;;;;;;;;;11.34;77.37;96615.44;30001;983;1880;-63
2022/09/24 00:44:58;;;;;;;;;;;;;;;11.33;77.21;96616.56;30001;983;1885;-63
2022/09/24 00:45:30;;;;;;;;;;;;;;;11.32;77.42;96609.50;30001;982;1876;-63
2022/09/24 00:46:20;;;;;;;;;;;;;;;11.30;77.37;96609.00;30001;982;1885;-63
2022/09/24 00:46:51;;;;;;;;;;;;;;;11.28;77.50;96602.28;30001;982;1877;-64
2022/09/24 00:47:33;;;;;;;;;;;;;;;11.27;77.38;96606.91;30001;983;1884;-63
2022/09/24 00:48:04;;;;;;;;;;;;;;;11.27;77.79;96606.09;30001;983;1867;-63
2022/09/24 00:48:38;;;;;;;;;;;;;;;11.26;77.56;96610.72;30001;983;1876;-62
2022/09/24 00:49:11;;;;;;;;;;;;;;;11.25;77.73;96606.41;30001;983;1867;-63
2022/09/24 00:49:43;;;;;;;;;;;;;;;11.25;77.63;96598.25;30001;983;1876;-63
2022/09/24 00:50:16;;;;;;;;;;;;;;;11.24;77.76;96602.06;30001;983;1867;-59
2022/09/24 00:50:47;;;;;;;;;;;;;;;11.22;77.42;96596.13;30001;983;1876;-64
2022/09/24 00:51:20;;;;;;;;;;;;;;;11.22;77.72;96598.03;30001;983;1881;-59
2022/09/24 00:51:51;;;;;;;;;;;;;;;11.22;77.62;96598.84;30001;983;1885;-64
2022/09/24 00:52:22;;;;;;;;;;;;;;;11.23;77.81;96589.59;30001;982;1881;-63
2022/09/24 00:52:56;;;;;;;;;;;;;;;11.25;77.76;96597.44;30001;982;1885;-63
2022/09/24 00:53:32;;;;;;;;;;;;;;;11.25;77.72;96589.28;30001;982;1881;-63
2022/09/24 00:54:05;;;;;;;;;;;;;;;11.23;77.73;96589.59;30001;982;1886;-63
2022/09/24 00:54:36;;;;;;;;;;;;;;;11.25;77.76;96592.00;30001;982;1881;-64
2022/09/24 00:55:08;;;;;;;;;;;;;;;11.24;77.91;96583.06;30001;983;1885;-63
2022/09/24 00:55:40;;;;;;;;;;;;;;;11.25;77.88;96587.37;30001;983;1867;-65
2022/09/24 00:56:14;;;;;;;;;;;;;;;11.25;77.65;96581.16;30001;983;1876;-63
2022/09/24 00:56:47;;;;;;;;;;;;;;;11.24;77.77;96585.78;30001;983;1881;-63
2022/09/24 00:57:20;;;;;;;;;;;;;;;11.22;77.69;96577.13;30002;983;1885;-64
2022/09/24 00:57:55;;;;;;;;;;;;;;;11.21;78.24;96585.56;30002;983;1880;-63
2022/09/24 00:58:27;;;;;;;;;;;;;;;11.20;77.70;96582.06;30002;983;1885;-64
2022/09/24 00:59:01;;;;;;;;;;;;;;;11.19;77.95;96577.72;30002;983;1881;-64
2022/09/24 00:59:33;;;;;;;;;;;;;;;11.19;78.25;96579.66;30002;982;1885;-65
2022/09/24 01:00:06;;;;;;;;;;;;;;;11.16;77.97;96581.06;30002;982;1868;-63
2022/09/24 01:00:38;;;;;;;;;;;;;;;11.16;78.04;96578.34;30002;982;1876;-63
2022/09/24 01:01:09;;;;;;;;;;;;;;;11.15;78.25;96576.72;30002;982;1881;-63
2022/09/24 01:01:40;;;;;;;;;;;;;;;11.15;77.83;96581.34;30002;982;1886;-63
2022/09/24 01:02:13;;;;;;;;;;;;;;;11.14;78.11;96569.69;30002;982;1881;-63
2022/09/24 01:02:45;;;;;;;;;;;;;;;11.14;77.92;96574.31;30002;983;1872;-64
2022/09/24 01:03:20;;;;;;;;;;;;;;;11.14;78.09;96575.12;30002;983;1871;-63
2022/09/24 01:03:54;;;;;;;;;;;;;;;11.14;78.56;96572.41;30002;983;1885;-63
2022/09/24 01:04:26;;;;;;;;;;;;;;;11.13;78.24;96573.50;30002;983;1867;-62
2022/09/24 01:04:58;;;;;;;;;;;;;;;11.14;78.15;96585.97;30002;983;1876;-63
2022/09/24 01:05:33;;;;;;;;;;;;;;;11.13;78.17;96576.22;30002;983;1881;-64
2022/09/24 01:06:07;;;;;;;;;;;;;;;11.12;78.23;96577.34;30002;983;1885;-64
2022/09/24 01:06:38;;;;;;;;;;;;;;;11.12;78.09;96576.53;30002;982;1867;-63
2022/09/24 01:07:08;;;;;;;;;;;;;;;11.11;77.93;96573.00;30002;982;1876;-64
2022/09/24 01:07:39;;;;;;;;;;;;;;;11.12;78.35;96571.91;30002;982;1881;-63
2022/09/24 01:08:14;;;;;;;;;;;;;;;11.13;78.08;96572.72;30002;982;1885;-58
2022/09/24 01:08:46;;;;;;;;;;;;;;;11.12;78.27;96571.91;30002;982;1881;-63
2022/09/24 01:09:18;;;;;;;;;;;;;;;11.12;78.19;96574.62;30002;982;1886;-63
2022/09/24 01:09:49;;;;;;;;;;;;;;;11.12;78.21;96577.34;30002;982;1868;-63
2022/09/24 01:11:34;;;;;;;;;;;;;;;11.14;78.06;96569.69;30002;983;1880;-58
2022/09/24 01:12:13;;;;;;;;;;;;;;;11.12;78.04;96574.62;30002;983;1876;-64
2022/09/24 01:12:56;;;;;;;;;;;;;;;11.10;78.02;96568.69;30002;983;1881;-63
2022/09/24 01:13:39;;;;;;;;;;;;;;;11.09;78.05;96572.50;30002;983;1872;-63
2022/09/24 01:14:18;;;;;;;;;;;;;;;11.08;78.16;96577.16;30002;982;1872;-62
2022/09/24 01:15:13;;;;;;;;;;;;;;;11.07;78.01;96572.03;30002;982;1885;-63
2022/09/24 01:15:52;;;;;;;;;;;;;;;11.08;78.51;96570.94;30002;982;1877;-64
2022/09/24 01:16:32;;;;;;;;;;;;;;;11.08;77.94;96568.22;30002;982;1885;-63
2022/09/24 01:17:12;;;;;;;;;;;;;;;11.10;78.69;96568.69;30002;982;1881;-62
2022/09/24 01:18:01;;;;;;;;;;;;;;;11.10;78.24;96565.97;30002;983;1885;-63
2022/09/24 01:18:42;;;;;;;;;;;;;;;11.11;78.07;96570.28;30002;983;1858;-63
2022/09/24 01:19:48;;;;;;;;;;;;;;;11.10;77.85;96563.25;30002;983;1876;-63
2022/09/24 01:20:47;;;;;;;;;;;;;;;11.08;77.98;96560.06;30002;983;1863;-63
2022/09/24 01:21:44;;;;;;;;;;;;;;;11.07;78.29;96563.87;30002;983;1876;-63
2022/09/24 01:22:41;;;;;;;;;;;;;;;11.08;77.86;96560.88;30002;982;1881;-64
2022/09/24 01:24:39;;;;;;;;;;;;;;;11.14;77.95;96561.53;89985;984;18000;-64
2022/09/24 01:25:28;;;;;;;;;;;;;;;11.19;77.55;96555.19;30001;982;1860;-63
2022/09/24 01:26:18;;;;;;;;;;;;;;;11.21;77.56;96556.50;30001;982;1864;-63
2022/09/24 01:26:56;;;;;;;;;;;;;;;11.20;77.24;96554.09;30001;983;1872;-64
2022/09/24 01:27:51;;;;;;;;;;;;;;;11.19;77.47;96557.91;30001;983;1876;-64
2022/09/24 01:28:40;;;;;;;;;;;;;;;11.17;77.24;96557.41;30001;983;1876;-62
2022/09/24 01:29:40;;;;;;;;;;;;;;;11.15;77.59;96555.00;30001;983;1855;-63
2022/09/24 01:30:14;;;;;;;;;;;;;;;11.15;77.74;96557.72;30001;983;1868;-63
2022/09/24 01:30:46;;;;;;;;;;;;;;;11.16;77.63;96562.03;30001;983;1863;-63
2022/09/24 01:31:20;;;;;;;;;;;;;;;11.17;77.59;96558.22;30001;982;1872;-64
2022/09/24 01:32:04;;;;;;;;;;;;;;;11.17;77.97;96552.00;30001;982;1877;-63
2022/09/24 01:32:48;;;;;;;;;;;;;;;11.16;77.65;96550.38;30001;982;1868;-64
2022/09/24 01:33:21;;;;;;;;;;;;;;;11.17;77.55;96547.34;30001;982;1868;-63
2022/09/24 01:33:53;;;;;;;;;;;;;;;11.15;77.48;96555.00;30001;982;1881;-64
2022/09/24 01:34:26;;;;;;;;;;;;;;;11.14;77.78;96547.16;30001;983;1781;-62
2022/09/24 01:35:23;;;;;;;;;;;;;;;11.12;77.48;96547.47;30001;983;1881;-64
2022/09/24 01:35:57;;;;;;;;;;;;;;;11.10;77.79;96544.25;30001;983;1872;-63
2022/09/24 01:36:29;;;;;;;;;;;;;;;11.11;77.73;96543.13;30001;983;1881;-64
2022/09/24 01:37:02;;;;;;;;;;;;;;;11.13;77.91;96548.28;30001;983;1877;-63
2022/09/24 01:37:34;;;;;;;;;;;;;;;11.12;77.91;96536.59;30001;983;1868;-62
2022/09/24 01:38:39;;;;;;;;;;;;;;;11.13;77.93;96545.56;30001;983;1868;-63
2022/09/24 01:39:13;;;;;;;;;;;;;;;11.09;77.82;96543.44;30001;982;1864;-63
2022/09/24 01:39:45;;;;;;;;;;;;;;;11.08;77.96;96541.88;30001;982;1868;-58
2022/09/24 01:40:17;;;;;;;;;;;;;;;11.08;77.78;96549.22;30001;982;1881;-64
2022/09/24 01:40:50;;;;;;;;;;;;;;;11.07;77.99;96547.59;30001;982;1877;-63
2022/09/24 01:41:25;;;;;;;;;;;;;;;11.06;77.80;96543.28;30001;983;1880;-63
2022/09/24 01:41:56;;;;;;;;;;;;;;;11.05;78.11;96544.38;30001;983;1876;-63
2022/09/24 01:42:29;;;;;;;;;;;;;;;11.03;78.03;96541.16;30001;983;1881;-63
2022/09/24 01:43:02;;;;;;;;;;;;;;;11.01;78.39;96544.19;30001;983;1876;-63
2022/09/24 01:43:33;;;;;;;;;;;;;;;11.01;78.24;96537.94;30001;983;1881;-63
2022/09/24 01:44:06;;;;;;;;;;;;;;;10.98;78.27;96538.56;30001;983;1877;-64
2022/09/24 01:44:40;;;;;;;;;;;;;;;10.98;78.52;96542.06;30001;983;1762;-63
2022/09/24 01:45:13;;;;;;;;;;;;;;;10.96;78.57;96530.72;30001;983;1868;-63
2022/09/24 01:45:45;;;;;;;;;;;;;;;10.96;78.46;96538.06;30001;983;1881;-63
2022/09/24 01:46:18;;;;;;;;;;;;;;;10.95;78.61;96528.31;30001;982;1877;-58
2022/09/24 01:46:49;;;;;;;;;;;;;;;10.93;78.64;96531.31;30001;982;1881;-63
2022/09/24 01:47:29;;;;;;;;;;;;;;;10.90;78.70;96531.91;30001;982;1877;-63
2022/09/24 01:48:01;;;;;;;;;;;;;;;10.87;78.69;96523.56;30001;982;1881;-63
2022/09/24 01:48:36;;;;;;;;;;;;;;;10.86;79.04;96528.19;30001;983;1876;-64
2022/09/24 01:49:07;;;;;;;;;;;;;;;10.86;79.09;96527.41;30001;983;1880;-63
2022/09/24 01:49:39;;;;;;;;;;;;;;;10.86;79.08;96532.81;30001;983;1863;-64
2022/09/24 01:50:11;;;;;;;;;;;;;;;10.85;79.30;96528.50;30001;983;1872;-63
2022/09/24 01:50:50;;;;;;;;;;;;;;;10.84;79.04;96533.13;30001;983;1876;-63
2022/09/24 01:51:33;;;;;;;;;;;;;;;10.83;79.17;96533.44;30001;983;1881;-64
2022/09/24 01:52:08;;;;;;;;;;;;;;;10.81;79.08;96532.94;30001;983;1877;-64
2022/09/24 01:52:43;;;;;;;;;;;;;;;10.79;79.34;96530.50;30001;983;1881;-64
2022/09/24 01:53:20;;;;;;;;;;;;;;;10.77;79.28;96529.22;30001;983;1877;-64
2022/09/24 01:54:14;;;;;;;;;;;;;;;10.74;79.29;96545.00;30001;982;1881;-64
2022/09/24 01:54:50;;;;;;;;;;;;;;;10.74;79.83;96539.56;30001;982;1859;-64
2022/09/24 01:55:24;;;;;;;;;;;;;;;10.72;79.90;96530.94;30001;982;1873;-63
2022/09/24 01:56:01;;;;;;;;;;;;;;;10.71;79.62;96533.97;30001;982;1877;-64
2022/09/24 01:56:38;;;;;;;;;;;;;;;10.70;79.61;96533.16;30001;983;1880;-58
2022/09/24 01:57:14;;;;;;;;;;;;;;;10.70;79.77;96533.16;30001;983;1876;-63
2022/09/24 01:57:48;;;;;;;;;;;;;;;10.68;79.87;96535.38;30001;983;1881;-63
2022/09/24 01:58:24;;;;;;;;;;;;;;;10.68;79.99;96529.94;30001;983;1863;-65
2022/09/24 01:59:01;;;;;;;;;;;;;;;10.67;80.07;96525.63;30001;983;1859;-64
2022/09/24 01:59:39;;;;;;;;;;;;;;;10.67;79.88;96525.63;30001;983;1877;-63
2022/09/24 02:00:12;;;;;;;;;;;;;;;10.65;79.94;96525.13;30001;983;1868;-63
2022/09/24 02:00:45;;;;;;;;;;;;;;;10.64;80.02;96520.78;30001;983;1868;-64
2022/09/24 02:01:19;;;;;;;;;;;;;;;10.64;80.12;96517.28;30001;982;1881;-64
2022/09/24 02:01:55;;;;;;;;;;;;;;;10.63;80.14;96516.47;30001;982;1877;-65
2022/09/24 02:02:38;;;;;;;;;;;;;;;10.62;80.26;96514.88;30001;982;1881;-63
2022/09/24 02:03:12;;;;;;;;;;;;;;;10.62;80.35;96525.72;30001;982;1877;-63
2022/09/24 02:03:47;;;;;;;;;;;;;;;10.62;80.05;96519.47;30001;983;1880;-64
2022/09/24 02:04:20;;;;;;;;;;;;;;;10.61;80.30;96518.69;30001;983;1876;-63
2022/09/24 02:04:55;;;;;;;;;;;;;;;10.60;79.98;96522.50;30001;983;1881;-64
2022/09/24 02:05:30;;;;;;;;;;;;;;;10.59;80.09;96523.59;30001;983;1863;-64
2022/09/24 02:06:09;;;;;;;;;;;;;;;10.59;80.42;96522.78;30001;983;1859;-63
2022/09/24 02:06:55;;;;;;;;;;;;;;;10.59;80.30;96520.88;30001;983;1876;-63
2022/09/24 02:07:31;;;;;;;;;;;;;;;10.59;80.44;96520.88;30001;983;1881;-64
2022/09/24 02:08:07;;;;;;;;;;;;;;;10.59;80.32;96520.88;30001;983;1877;-63
2022/09/24 02:08:43;;;;;;;;;;;;;;;10.59;80.45;96526.31;30001;982;1881;-63
2022/09/24 02:09:32;;;;;;;;;;;;;;;10.59;80.34;96520.09;30001;982;1877;-63
2022/09/24 02:10:04;;;;;;;;;;;;;;;10.58;80.29;96521.19;30001;982;1868;-62
2022/09/24 02:10:45;;;;;;;;;;;;;;;10.58;80.38;96523.91;30001;982;1868;-64
2022/09/24 02:11:23;;;;;;;;;;;;;;;10.59;80.38;96520.88;30001;983;1881;-63
2022/09/24 02:11:55;;;;;;;;;;;;;;;10.58;80.48;96513.06;30001;983;1876;-58
2022/09/24 02:12:36;;;;;;;;;;;;;;;10.59;80.13;96520.88;30001;983;1880;-59
2022/09/24 02:13:12;;;;;;;;;;;;;;;10.61;80.45;96509.72;30001;983;1877;-64
2022/09/24 02:14:05;;;;;;;;;;;;;;;10.63;80.59;96521.09;30001;983;1881;-63
2022/09/24 02:14:43;;;;;;;;;;;;;;;10.63;80.02;96512.94;30001;983;1877;-65
2022/09/24 02:15:17;;;;;;;;;;;;;;;10.62;80.08;96520.28;30001;982;1868;-63
2022/09/24 02:15:49;;;;;;;;;;;;;;;10.63;80.24;96515.66;30001;982;1868;-63
2022/09/24 02:16:23;;;;;;;;;;;;;;;10.64;80.27;96506.41;30001;982;1881;-64
2022/09/24 02:16:55;;;;;;;;;;;;;;;10.64;79.96;96504.50;30001;982;1877;-63
2022/09/24 02:17:28;;;;;;;;;;;;;;;10.65;80.07;96511.53;30001;982;1881;-63
2022/09/24 02:18:02;;;;;;;;;;;;;;;10.65;79.96;96508.03;30001;982;1877;-63
2022/09/24 02:18:34;;;;;;;;;;;;;;;10.65;79.99;96503.41;30001;982;1881;-63
2022/09/24 02:19:08;;;;;;;;;;;;;;;10.65;80.26;96506.12;30001;983;1863;-64
2022/09/24 02:19:40;;;;;;;;;;;;;;;10.66;80.12;96513.16;30001;983;1872;-63
2022/09/24 02:20:14;;;;;;;;;;;;;;;10.65;79.97;96511.53;30001;983;1876;-62
2022/09/24 02:20:46;;;;;;;;;;;;;;;10.66;80.16;96515.06;30001;983;1881;-63
2022/09/24 02:21:19;;;;;;;;;;;;;;;10.66;79.94;96517.78;30001;983;1877;-63
2022/09/24 02:21:51;;;;;;;;;;;;;;;10.67;80.02;96509.34;30001;983;1881;-63
2022/09/24 02:22:23;;;;;;;;;;;;;;;10.66;80.02;96515.88;30001;983;1877;-63
2022/09/24 02:22:55;;;;;;;;;;;;;;;10.66;79.98;96515.88;30001;982;1881;-63
2022/09/24 02:23:27;;;;;;;;;;;;;;;10.65;80.06;96514.25;30001;982;1877;-63
2022/09/24 02:24:09;;;;;;;;;;;;;;;10.65;80.22;96519.69;30001;982;1868;-64
2022/09/24 02:24:48;;;;;;;;;;;;;;;10.64;80.14;96523.50;30001;982;1868;-64
2022/09/24 02:25:21;;;;;;;;;;;;;;;10.64;80.24;96528.13;30001;982;1881;-63
2022/09/24 02:25:57;;;;;;;;;;;;;;;10.63;80.32;96524.59;30001;982;1877;-63
2022/09/24 02:26:28;;;;;;;;;;;;;;;10.63;80.33;96521.91;30001;983;1881;-63
2022/09/24 02:26:59;;;;;;;;;;;;;;;10.63;80.21;96521.91;30001;983;1877;-64
2022/09/24 02:27:30;;;;;;;;;;;;;;;10.65;80.16;96521.59;30001;983;1881;-63
2022/09/24 02:28:02;;;;;;;;;;;;;;;10.64;80.48;96518.06;30001;983;1863;-63
2022/09/24 02:28:33;;;;;;;;;;;;;;;10.64;80.17;96523.50;30001;983;1872;-63
2022/09/24 02:29:04;;;;;;;;;;;;;;;10.65;80.30;96519.69;30001;983;1877;-64
2022/09/24 02:29:35;;;;;;;;;;;;;;;10.66;80.40;96526.72;30001;983;1881;-63
2022/09/24 02:30:07;;;;;;;;;;;;;;;10.64;80.36;96523.50;30001;983;1877;-64
2022/09/24 02:30:42;;;;;;;;;;;;;;;10.66;80.24;96513.16;30001;982;1881;-64
2022/09/24 02:31:19;;;;;;;;;;;;;;;10.67;79.95;96522.91;30001;982;1877;-63
2022/09/24 02:31:53;;;;;;;;;;;;;;;10.66;80.25;96521.28;30001;982;1881;-64
2022/09/24 02:32:26;;;;;;;;;;;;;;;10.66;80.15;96521.28;30001;982;1877;-64
2022/09/24 02:32:57;;;;;;;;;;;;;;;10.69;80.47;96515.25;30001;982;1881;-64
2022/09/24 02:34:23;;;;;;;;;;;;;;;10.71;79.77;96515.78;30001;983;1872;-63
2022/09/24 02:34:56;;;;;;;;;;;;;;;10.72;80.13;96514.66;30001;983;1876;-65
2022/09/24 02:35:27;;;;;;;;;;;;;;;10.74;80.19;96512.44;30001;983;1881;-63
2022/09/24 02:35:58;;;;;;;;;;;;;;;10.75;79.62;96511.31;30001;983;1876;-62
2022/09/24 02:36:29;;;;;;;;;;;;;;;10.77;79.55;96510.22;30001;983;1881;-63
2022/09/24 02:37:08;;;;;;;;;;;;;;;10.77;79.73;96508.31;30001;983;1877;-63
2022/09/24 02:37:40;;;;;;;;;;;;;;;10.78;79.41;96506.41;30001;983;1881;-58
2022/09/24 02:38:15;;;;;;;;;;;;;;;10.81;79.74;96511.22;30001;982;1864;-64
2022/09/24 02:38:46;;;;;;;;;;;;;;;10.82;79.58;96507.41;30001;982;1872;-63
2022/09/24 02:39:17;;;;;;;;;;;;;;;10.82;79.24;96504.69;30001;982;1877;-63
2022/09/24 02:39:49;;;;;;;;;;;;;;;10.83;79.04;96509.00;30001;982;1881;-63
2022/09/24 02:40:20;;;;;;;;;;;;;;;10.82;79.33;96507.41;30001;982;1877;-63
2022/09/24 02:40:53;;;;;;;;;;;;;;;10.82;79.03;96499.25;30001;982;1881;-63
2022/09/24 02:41:25;;;;;;;;;;;;;;;10.82;79.11;96499.25;30001;983;1876;-63
2022/09/24 02:41:57;;;;;;;;;;;;;;;10.84;79.10;96491.62;30001;983;1867;-63
2022/09/24 02:42:30;;;;;;;;;;;;;;;10.83;79.02;96492.72;30001;983;1868;-63
2022/09/24 02:43:01;;;;;;;;;;;;;;;10.83;78.97;96495.44;30001;983;1881;-64
2022/09/24 02:43:33;;;;;;;;;;;;;;;10.83;78.94;96498.16;30001;983;1863;-64
2022/09/24 02:44:04;;;;;;;;;;;;;;;10.81;79.01;96493.03;30001;983;1859;-63
2022/09/24 02:44:35;;;;;;;;;;;;;;;10.82;79.21;96499.25;30001;983;1877;-64
2022/09/24 02:45:06;;;;;;;;;;;;;;;10.81;79.39;96500.38;30001;983;1881;-64
2022/09/24 02:45:37;;;;;;;;;;;;;;;10.80;78.98;96494.13;30001;982;1877;-64
2022/09/24 02:46:09;;;;;;;;;;;;;;;10.80;79.06;96493.31;30001;982;1881;-64
2022/09/24 02:46:40;;;;;;;;;;;;;;;10.80;79.16;96498.75;30001;982;1877;-65
2022/09/24 02:47:12;;;;;;;;;;;;;;;10.79;79.26;96497.94;30001;982;1881;-63
2022/09/24 02:47:43;;;;;;;;;;;;;;;10.79;79.39;96499.84;30001;982;1864;-63
2022/09/24 02:48:13;;;;;;;;;;;;;;;10.78;79.46;96495.53;30001;983;1872;-63
2022/09/24 02:48:44;;;;;;;;;;;;;;;10.77;79.27;96499.34;30001;983;1876;-58
2022/09/24 02:49:15;;;;;;;;;;;;;;;10.77;79.78;96500.16;30001;983;1881;-63
2022/09/24 02:49:47;;;;;;;;;;;;;;;10.75;80.30;96502.37;30001;983;1876;-63
2022/09/24 02:50:18;;;;;;;;;;;;;;;10.73;80.35;96502.69;30001;983;1881;-64
2022/09/24 02:50:49;;;;;;;;;;;;;;;10.72;80.48;96503.81;30001;983;1876;-64
2022/09/24 02:51:20;;;;;;;;;;;;;;;10.72;80.90;96503.81;30001;983;1868;-64
2022/09/24 02:51:51;;;;;;;;;;;;;;;10.71;80.63;96501.41;30001;983;1868;-63
2022/09/24 02:52:22;;;;;;;;;;;;;;;10.71;80.59;96507.63;30001;983;1881;-63
2022/09/24 02:52:53;;;;;;;;;;;;;;;10.70;80.56;96510.66;30001;983;1877;-63
2022/09/24 02:53:24;;;;;;;;;;;;;;;10.69;80.49;96507.12;30001;982;1785;-64
2022/09/24 02:53:56;;;;;;;;;;;;;;;10.70;80.33;96511.44;30001;982;1877;-63
2022/09/24 02:54:27;;;;;;;;;;;;;;;10.70;80.17;96511.44;30001;982;1868;-63
2022/09/24 02:54:58;;;;;;;;;;;;;;;10.71;80.58;96523.09;30001;982;1855;-64
2022/09/24 02:55:30;;;;;;;;;;;;;;;10.71;80.40;96515.78;30001;982;1882;-63
2022/09/24 02:56:01;;;;;;;;;;;;;;;10.71;80.34;96513.06;30001;983;1876;-65
2022/09/24 02:56:32;;;;;;;;;;;;;;;10.73;80.55;96516.28;30001;983;1881;-65
2022/09/24 02:57:03;;;;;;;;;;;;;;;10.73;80.33;96515.47;30001;983;1876;-64
2022/09/24 02:57:34;;;;;;;;;;;;;;;10.72;80.62;96519.28;30001;983;1881;-63
2022/09/24 02:58:06;;;;;;;;;;;;;;;10.70;80.63;96516.88;30001;983;1876;-58
2022/09/24 02:58:36;;;;;;;;;;;;;;;10.70;80.45;96510.66;30001;983;1881;-64
2022/09/24 02:59:08;;;;;;;;;;;;;;;10.70;80.40;96526.94;30001;983;1877;-64
2022/09/24 02:59:39;;;;;;;;;;;;;;;10.70;80.42;96526.94;30001;983;1868;-63
2022/09/24 03:00:11;;;;;;;;;;;;;;;10.70;80.54;96525.00;30001;983;1868;-63
2022/09/24 03:00:42;;;;;;;;;;;;;;;10.69;80.17;96514.47;30001;982;1881;-63
2022/09/24 03:01:13;;;;;;;;;;;;;;;10.69;80.70;96509.84;30001;982;1864;-57
2022/09/24 03:01:45;;;;;;;;;;;;;;;10.70;80.45;96511.44;30001;982;1873;-64
2022/09/24 03:02:15;;;;;;;;;;;;;;;10.71;80.20;96506.81;30001;982;1877;-63
2022/09/24 03:02:46;;;;;;;;;;;;;;;10.71;80.34;96504.91;30001;982;1881;-63
2022/09/24 03:03:17;;;;;;;;;;;;;;;10.71;80.04;96501.41;30001;983;1876;-64
2022/09/24 03:03:48;;;;;;;;;;;;;;;10.71;80.44;96496.78;30001;968;1907;-63
2022/09/24 03:04:19;;;;;;;;;;;;;;;10.72;80.18;96503.00;30001;983;1876;-58
2022/09/24 03:04:50;;;;;;;;;;;;;;;10.72;80.08;96498.38;30001;983;1868;-64
2022/09/24 03:05:21;;;;;;;;;;;;;;;10.72;80.25;96503.81;30001;983;1868;-64
2022/09/24 03:05:53;;;;;;;;;;;;;;;10.73;80.22;96501.91;30001;983;1881;-63
2022/09/24 03:06:24;;;;;;;;;;;;;;;10.73;80.28;96500.00;30001;983;1876;-58
2022/09/24 03:06:55;;;;;;;;;;;;;;;10.73;80.04;96500.00;30001;983;1881;-63
2022/09/24 03:07:26;;;;;;;;;;;;;;;10.74;80.44;96501.56;30001;982;1877;-63
2022/09/24 03:07:58;;;;;;;;;;;;;;;10.73;80.01;96502.69;30001;982;1881;-63
2022/09/24 03:08:31;;;;;;;;;;;;;;;10.74;80.12;96501.56;30001;982;1877;-63
2022/09/24 03:09:03;;;;;;;;;;;;;;;10.74;80.34;96496.13;30001;982;1881;-63
2022/09/24 03:09:34;;;;;;;;;;;;;;;10.75;80.22;96496.94;30001;982;1864;-64